Oasis of the Seas — C6XS7 — position and weather

sailwx.info

Track history (hours):
 
Tides and Currents Weather Stations Pressure Air Temp Water Temp Dewpoint Dewpoint Depression Visibility Wind Speed Wind Dir Waves Ship Positions

Oasis of the Seas

Last reported at 2016-May-21 22:11 UTC. Time now 2016-May-26 06:51 UTC.
Position N 25°49' W 079°59'.

Length 360 m; draft 9.3 m.

Type: Passenger vessel. MMSI: 311020600.

Date/timePositionNaut miles runAvg speedWind from/ knotsBaromVisibWave heightAir tempDewpointWater temp
2016-May-21 22:11N 25°49' W 079°59'914.7
2016-May-21 21:33N 25°58' W 080°02'9 8.8
2016-May-21 20:33N 26°05' W 080°07'0 0.0
2016-May-21 19:24N 26°05' W 080°07'0 0.0
2016-May-21 18:12N 26°05' W 080°07'0 0.0
2016-May-21 17:27N 26°05' W 080°07'0 0.0
2016-May-21 16:24N 26°05' W 080°07'0 0.0
2016-May-21 15:30N 26°05' W 080°07'0 0.0
2016-May-21 14:27N 26°05' W 080°07'0 0.0
2016-May-21 13:30N 26°05' W 080°07'0 0.0
2016-May-21 12:33N 26°05' W 080°07'0 0.0
2016-May-21 11:33N 26°05' W 080°07'0 0.0
2016-May-21 10:33N 26°05' W 080°07'0 0.3
2016-May-21 09:34N 26°06' W 080°07'1312.6
2016-May-21 08:33N 26°06' W 079°53'1717.3
2016-May-21 07:33N 26°08' W 079°34'3718.1
2016-May-21 05:31N 26°10' W 078°53'1717.9
2016-May-21 04:33N 26°06' W 078°34'  
2016-May-18 22:10N 18°08' W 063°20'1319.2
2016-May-18 21:31N 18°01' W 063°09'5 0.5
2016-May-18 11:20N 18°00' W 063°04'8 9.4
2016-May-18 10:30N 18°00' W 063°12'9 9.8
2016-May-18 09:33N 18°00' W 063°22'10 9.7
2016-May-18 08:33N 18°00' W 063°32'  
2016-May-15 07:22N 25°42' W 077°34'11813.4
2016-May-14 22:33N 26°08' W 079°43'1313.3
2016-May-14 21:33N 26°07' W 079°57'9 9.1
2016-May-14 20:33N 26°05' W 080°07'0 0.0
2016-May-14 19:21N 26°05' W 080°07'0 0.0
2016-May-14 18:27N 26°05' W 080°07'0 0.0
2016-May-14 17:27N 26°05' W 080°07'0 0.0
2016-May-14 16:30N 26°05' W 080°07'0 0.0
2016-May-14 15:30N 26°05' W 080°07'0 0.0
2016-May-14 14:30N 26°05' W 080°07'0 0.0
2016-May-14 13:33N 26°05' W 080°07'0 0.0
2016-May-14 12:23N 26°05' W 080°07'0 0.0
2016-May-14 11:23N 26°05' W 080°07'0 0.0
2016-May-14 10:26N 26°05' W 080°07'0 0.2
2016-May-14 09:33N 26°05' W 080°07'8 8.3
2016-May-14 08:33N 26°00' W 079°60'1514.7
2016-May-14 07:33N 25°46' W 079°57'50115.7
2016-May-12 23:33N 20°29' W 086°59'0 0.1
2016-May-12 22:32N 20°29' W 086°59'0 0.0
2016-May-12 21:32N 20°29' W 086°59'0 0.0
2016-May-12 20:29N 20°29' W 086°59'0 0.0
2016-May-12 19:32N 20°29' W 086°59'0 0.0
2016-May-12 18:32N 20°29' W 086°59'0 0.0
2016-May-12 17:32N 20°29' W 086°59'0 0.0
2016-May-12 16:32N 20°29' W 086°59'0 0.0
2016-May-12 15:29N 20°29' W 086°59'0 0.0
2016-May-12 14:32N 20°29' W 086°59'0 0.0
2016-May-12 13:29N 20°29' W 086°59'0 0.0
2016-May-12 12:32N 20°29' W 086°59'0 0.4
2016-May-12 11:34N 20°29' W 086°59'10 9.6
2016-May-12 10:32N 20°38' W 086°54'  
Track history (hours):
 
Tides and Currents Weather Stations Pressure Air Temp Water Temp Dewpoint Dewpoint Depression Visibility Wind Speed Wind Dir Waves Ship Positions

Oasis of the Seas

Last reported at 2016-May-21 22:11 UTC. Time now 2016-May-26 06:51 UTC.
Position N 25°49' W 079°59'.

Length 360 m; draft 9.3 m.

Type: Passenger vessel. MMSI: 311020600.

Date/timePositionNaut miles runAvg speedWind from/ knotsBaromVisibWave heightAir tempDewpointWater temp
2016-May-21 22:11N 25°49' W 079°59'914.7
2016-May-21 21:33N 25°58' W 080°02'9 8.8
2016-May-21 20:33N 26°05' W 080°07'0 0.0
2016-May-21 19:24N 26°05' W 080°07'0 0.0
2016-May-21 18:12N 26°05' W 080°07'0 0.0
2016-May-21 17:27N 26°05' W 080°07'0 0.0
2016-May-21 16:24N 26°05' W 080°07'0 0.0
2016-May-21 15:30N 26°05' W 080°07'0 0.0
2016-May-21 14:27N 26°05' W 080°07'0 0.0
2016-May-21 13:30N 26°05' W 080°07'0 0.0
2016-May-21 12:33N 26°05' W 080°07'0 0.0
2016-May-21 11:33N 26°05' W 080°07'0 0.0
2016-May-21 10:33N 26°05' W 080°07'0 0.3
2016-May-21 09:34N 26°06' W 080°07'1312.6
2016-May-21 08:33N 26°06' W 079°53'1717.3
2016-May-21 07:33N 26°08' W 079°34'3718.1
2016-May-21 05:31N 26°10' W 078°53'1717.9
2016-May-21 04:33N 26°06' W 078°34'  
2016-May-18 22:10N 18°08' W 063°20'1319.2
2016-May-18 21:31N 18°01' W 063°09'5 0.5
2016-May-18 11:20N 18°00' W 063°04'8 9.4
2016-May-18 10:30N 18°00' W 063°12'9 9.8
2016-May-18 09:33N 18°00' W 063°22'10 9.7
2016-May-18 08:33N 18°00' W 063°32'  
2016-May-15 07:22N 25°42' W 077°34'11813.4
2016-May-14 22:33N 26°08' W 079°43'1313.3
2016-May-14 21:33N 26°07' W 079°57'9 9.1
2016-May-14 20:33N 26°05' W 080°07'0 0.0
2016-May-14 19:21N 26°05' W 080°07'0 0.0
2016-May-14 18:27N 26°05' W 080°07'0 0.0
2016-May-14 17:27N 26°05' W 080°07'0 0.0
2016-May-14 16:30N 26°05' W 080°07'0 0.0
2016-May-14 15:30N 26°05' W 080°07'0 0.0
2016-May-14 14:30N 26°05' W 080°07'0 0.0
2016-May-14 13:33N 26°05' W 080°07'0 0.0
2016-May-14 12:23N 26°05' W 080°07'0 0.0
2016-May-14 11:23N 26°05' W 080°07'0 0.0
2016-May-14 10:26N 26°05' W 080°07'0 0.2
2016-May-14 09:33N 26°05' W 080°07'8 8.3
2016-May-14 08:33N 26°00' W 079°60'1514.7
2016-May-14 07:33N 25°46' W 079°57'50115.7
2016-May-12 23:33N 20°29' W 086°59'0 0.1
2016-May-12 22:32N 20°29' W 086°59'0 0.0
2016-May-12 21:32N 20°29' W 086°59'0 0.0
2016-May-12 20:29N 20°29' W 086°59'0 0.0
2016-May-12 19:32N 20°29' W 086°59'0 0.0
2016-May-12 18:32N 20°29' W 086°59'0 0.0
2016-May-12 17:32N 20°29' W 086°59'0 0.0
2016-May-12 16:32N 20°29' W 086°59'0 0.0
2016-May-12 15:29N 20°29' W 086°59'0 0.0
2016-May-12 14:32N 20°29' W 086°59'0 0.0
2016-May-12 13:29N 20°29' W 086°59'0 0.0
2016-May-12 12:32N 20°29' W 086°59'0 0.4
2016-May-12 11:34N 20°29' W 086°59'10 9.6
2016-May-12 10:32N 20°38' W 086°54'  

Dump ship's entire track history